sensor_id;sensor_type;location;lat;lon;timestamp;temperature;humidity
52125;DHT22;38119;52.710;6.398;2023-11-19T00:00:26;11.50;99.90
52125;DHT22;38119;52.710;6.398;2023-11-19T00:02:52;11.50;99.90
52125;DHT22;38119;52.710;6.398;2023-11-19T00:05:18;11.50;99.90
52125;DHT22;38119;52.710;6.398;2023-11-19T00:07:44;11.50;99.90
52125;DHT22;38119;52.710;6.398;2023-11-19T00:10:14;11.60;99.90
52125;DHT22;38119;52.710;6.398;2023-11-19T00:12:41;11.60;99.90
52125;DHT22;38119;52.710;6.398;2023-11-19T00:15:07;11.60;99.90
52125;DHT22;38119;52.710;6.398;2023-11-19T00:17:37;11.60;99.90
52125;DHT22;38119;52.710;6.398;2023-11-19T00:20:05;11.70;99.90
52125;DHT22;38119;52.710;6.398;2023-11-19T00:22:31;11.70;99.90
52125;DHT22;38119;52.710;6.398;2023-11-19T00:24:58;11.70;99.90
52125;DHT22;38119;52.710;6.398;2023-11-19T00:27:25;11.70;99.90
52125;DHT22;38119;52.710;6.398;2023-11-19T00:29:50;11.80;99.90
52125;DHT22;38119;52.710;6.398;2023-11-19T00:32:22;11.80;99.90
52125;DHT22;38119;52.710;6.398;2023-11-19T00:34:48;11.90;99.90
52125;DHT22;38119;52.710;6.398;2023-11-19T00:37:14;11.90;99.90
52125;DHT22;38119;52.710;6.398;2023-11-19T00:39:43;11.90;99.90
52125;DHT22;38119;52.710;6.398;2023-11-19T00:42:09;12.00;99.90
52125;DHT22;38119;52.710;6.398;2023-11-19T00:44:38;12.00;99.90
52125;DHT22;38119;52.710;6.398;2023-11-19T00:47:04;12.00;99.90
52125;DHT22;38119;52.710;6.398;2023-11-19T00:49:33;12.10;99.90
52125;DHT22;38119;52.710;6.398;2023-11-19T00:51:59;12.10;99.90
52125;DHT22;38119;52.710;6.398;2023-11-19T00:54:27;12.10;99.90
52125;DHT22;38119;52.710;6.398;2023-11-19T00:56:52;12.10;99.90
52125;DHT22;38119;52.710;6.398;2023-11-19T00:59:19;12.10;99.90
52125;DHT22;38119;52.710;6.398;2023-11-19T01:01:44;12.10;99.90
52125;DHT22;38119;52.710;6.398;2023-11-19T01:04:10;12.10;99.90
52125;DHT22;38119;52.710;6.398;2023-11-19T01:06:36;12.10;99.90
52125;DHT22;38119;52.710;6.398;2023-11-19T01:09:02;12.10;99.90
52125;DHT22;38119;52.710;6.398;2023-11-19T01:11:27;12.10;99.90
52125;DHT22;38119;52.710;6.398;2023-11-19T01:13:53;12.10;99.90
52125;DHT22;38119;52.710;6.398;2023-11-19T01:16:20;12.20;99.90
52125;DHT22;38119;52.710;6.398;2023-11-19T01:18:49;12.20;99.90
52125;DHT22;38119;52.710;6.398;2023-11-19T01:21:15;12.20;99.90
52125;DHT22;38119;52.710;6.398;2023-11-19T01:23:41;12.10;99.90
52125;DHT22;38119;52.710;6.398;2023-11-19T01:26:11;12.20;99.90
52125;DHT22;38119;52.710;6.398;2023-11-19T01:28:38;12.30;99.90
52125;DHT22;38119;52.710;6.398;2023-11-19T01:31:07;12.40;99.90
52125;DHT22;38119;52.710;6.398;2023-11-19T01:33:41;12.20;99.90
52125;DHT22;38119;52.710;6.398;2023-11-19T01:36:08;12.20;99.90
52125;DHT22;38119;52.710;6.398;2023-11-19T01:38:35;12.20;99.90
52125;DHT22;38119;52.710;6.398;2023-11-19T01:41:01;12.20;99.90
52125;DHT22;38119;52.710;6.398;2023-11-19T01:43:39;12.20;99.90
52125;DHT22;38119;52.710;6.398;2023-11-19T01:46:07;12.20;99.90
52125;DHT22;38119;52.710;6.398;2023-11-19T01:48:37;12.20;99.90
52125;DHT22;38119;52.710;6.398;2023-11-19T01:51:06;12.20;99.90
52125;DHT22;38119;52.710;6.398;2023-11-19T01:53:32;12.20;99.90
52125;DHT22;38119;52.710;6.398;2023-11-19T01:56:00;12.20;99.90
52125;DHT22;38119;52.710;6.398;2023-11-19T01:58:41;12.20;99.90
52125;DHT22;38119;52.710;6.398;2023-11-19T02:01:07;12.20;99.90
52125;DHT22;38119;52.710;6.398;2023-11-19T02:03:33;12.20;99.90
52125;DHT22;38119;52.710;6.398;2023-11-19T02:05:59;12.20;99.90
52125;DHT22;38119;52.710;6.398;2023-11-19T02:08:25;12.20;99.90
52125;DHT22;38119;52.710;6.398;2023-11-19T02:10:51;12.20;99.90
52125;DHT22;38119;52.710;6.398;2023-11-19T02:13:18;12.20;99.90
52125;DHT22;38119;52.710;6.398;2023-11-19T02:15:44;12.20;99.90
52125;DHT22;38119;52.710;6.398;2023-11-19T02:18:23;12.20;99.90
52125;DHT22;38119;52.710;6.398;2023-11-19T02:20:52;12.20;99.90
52125;DHT22;38119;52.710;6.398;2023-11-19T02:23:19;12.20;99.90
52125;DHT22;38119;52.710;6.398;2023-11-19T02:28:24;12.20;99.90
52125;DHT22;38119;52.710;6.398;2023-11-19T02:30:50;12.20;99.90
52125;DHT22;38119;52.710;6.398;2023-11-19T02:33:16;12.20;99.90
52125;DHT22;38119;52.710;6.398;2023-11-19T02:35:44;12.20;99.90
52125;DHT22;38119;52.710;6.398;2023-11-19T02:38:10;12.20;99.90
52125;DHT22;38119;52.710;6.398;2023-11-19T02:40:36;12.20;99.90
52125;DHT22;38119;52.710;6.398;2023-11-19T02:43:02;12.20;99.90
52125;DHT22;38119;52.710;6.398;2023-11-19T02:45:32;12.20;99.90
52125;DHT22;38119;52.710;6.398;2023-11-19T02:47:57;12.20;99.90
52125;DHT22;38119;52.710;6.398;2023-11-19T02:50:23;12.20;99.90
52125;DHT22;38119;52.710;6.398;2023-11-19T02:52:53;12.10;99.90
52125;DHT22;38119;52.710;6.398;2023-11-19T02:55:23;12.10;99.90
52125;DHT22;38119;52.710;6.398;2023-11-19T02:57:50;12.10;99.90
52125;DHT22;38119;52.710;6.398;2023-11-19T03:00:19;12.10;99.90
52125;DHT22;38119;52.710;6.398;2023-11-19T03:02:49;12.10;99.90
52125;DHT22;38119;52.710;6.398;2023-11-19T03:05:24;12.10;99.90
52125;DHT22;38119;52.710;6.398;2023-11-19T03:07:50;12.10;99.90
52125;DHT22;38119;52.710;6.398;2023-11-19T03:10:15;12.10;99.90
52125;DHT22;38119;52.710;6.398;2023-11-19T03:12:42;12.10;99.90
52125;DHT22;38119;52.710;6.398;2023-11-19T03:15:08;12.00;99.90
52125;DHT22;38119;52.710;6.398;2023-11-19T03:17:38;12.00;99.90
52125;DHT22;38119;52.710;6.398;2023-11-19T03:20:10;12.00;99.90
52125;DHT22;38119;52.710;6.398;2023-11-19T03:22:39;12.00;99.90
52125;DHT22;38119;52.710;6.398;2023-11-19T03:25:10;12.00;99.90
52125;DHT22;38119;52.710;6.398;2023-11-19T03:27:42;12.10;99.90
52125;DHT22;38119;52.710;6.398;2023-11-19T03:30:10;12.10;99.90
52125;DHT22;38119;52.710;6.398;2023-11-19T03:32:42;12.10;99.90
52125;DHT22;38119;52.710;6.398;2023-11-19T03:35:07;12.10;99.90
52125;DHT22;38119;52.710;6.398;2023-11-19T03:37:34;12.10;99.90
52125;DHT22;38119;52.710;6.398;2023-11-19T03:40:07;12.10;99.90
52125;DHT22;38119;52.710;6.398;2023-11-19T03:42:33;12.20;99.90
52125;DHT22;38119;52.710;6.398;2023-11-19T03:45:00;12.10;99.90
52125;DHT22;38119;52.710;6.398;2023-11-19T03:47:25;12.10;99.90
52125;DHT22;38119;52.710;6.398;2023-11-19T03:49:51;12.20;99.90
52125;DHT22;38119;52.710;6.398;2023-11-19T03:52:18;12.20;99.90
52125;DHT22;38119;52.710;6.398;2023-11-19T03:54:44;12.10;99.90
52125;DHT22;38119;52.710;6.398;2023-11-19T03:57:13;12.10;99.90
52125;DHT22;38119;52.710;6.398;2023-11-19T03:59:41;12.20;99.90
52125;DHT22;38119;52.710;6.398;2023-11-19T04:02:06;12.10;99.90
52125;DHT22;38119;52.710;6.398;2023-11-19T04:04:32;12.10;99.90
52125;DHT22;38119;52.710;6.398;2023-11-19T04:06:59;12.10;99.90
52125;DHT22;38119;52.710;6.398;2023-11-19T04:09:26;12.20;99.90
52125;DHT22;38119;52.710;6.398;2023-11-19T04:11:52;12.10;99.90
52125;DHT22;38119;52.710;6.398;2023-11-19T04:14:17;12.10;99.90
52125;DHT22;38119;52.710;6.398;2023-11-19T04:16:46;12.10;99.90
52125;DHT22;38119;52.710;6.398;2023-11-19T04:19:15;12.00;99.90
52125;DHT22;38119;52.710;6.398;2023-11-19T04:21:41;12.00;99.90
52125;DHT22;38119;52.710;6.398;2023-11-19T04:24:10;12.00;99.90
52125;DHT22;38119;52.710;6.398;2023-11-19T04:26:43;12.00;99.90
52125;DHT22;38119;52.710;6.398;2023-11-19T04:29:15;11.90;99.90
52125;DHT22;38119;52.710;6.398;2023-11-19T04:31:43;11.90;99.90
52125;DHT22;38119;52.710;6.398;2023-11-19T04:34:09;11.90;99.90
52125;DHT22;38119;52.710;6.398;2023-11-19T04:36:35;11.80;99.90
52125;DHT22;38119;52.710;6.398;2023-11-19T04:39:05;11.80;99.90
52125;DHT22;38119;52.710;6.398;2023-11-19T04:41:46;11.80;99.90
52125;DHT22;38119;52.710;6.398;2023-11-19T04:44:12;11.80;99.90
52125;DHT22;38119;52.710;6.398;2023-11-19T04:46:38;11.80;99.90
52125;DHT22;38119;52.710;6.398;2023-11-19T04:49:06;11.80;99.90
52125;DHT22;38119;52.710;6.398;2023-11-19T04:51:43;11.80;99.90
52125;DHT22;38119;52.710;6.398;2023-11-19T04:54:09;11.80;99.90
52125;DHT22;38119;52.710;6.398;2023-11-19T04:56:35;11.70;99.90
52125;DHT22;38119;52.710;6.398;2023-11-19T04:59:06;11.70;99.90
52125;DHT22;38119;52.710;6.398;2023-11-19T05:01:35;11.70;99.90
52125;DHT22;38119;52.710;6.398;2023-11-19T05:04:06;11.70;99.90
52125;DHT22;38119;52.710;6.398;2023-11-19T05:06:32;11.80;99.90
52125;DHT22;38119;52.710;6.398;2023-11-19T05:08:59;11.80;99.90
52125;DHT22;38119;52.710;6.398;2023-11-19T05:11:36;11.70;99.90
52125;DHT22;38119;52.710;6.398;2023-11-19T05:14:05;11.70;99.90
52125;DHT22;38119;52.710;6.398;2023-11-19T05:16:30;11.80;99.90
52125;DHT22;38119;52.710;6.398;2023-11-19T05:18:56;11.80;99.90
52125;DHT22;38119;52.710;6.398;2023-11-19T05:21:22;11.70;99.90
52125;DHT22;38119;52.710;6.398;2023-11-19T05:23:48;11.80;99.90
52125;DHT22;38119;52.710;6.398;2023-11-19T05:26:23;11.80;99.90
52125;DHT22;38119;52.710;6.398;2023-11-19T05:28:50;11.80;99.90
52125;DHT22;38119;52.710;6.398;2023-11-19T05:31:16;11.80;99.90
52125;DHT22;38119;52.710;6.398;2023-11-19T05:33:42;11.80;99.90
52125;DHT22;38119;52.710;6.398;2023-11-19T05:36:08;11.80;99.90
52125;DHT22;38119;52.710;6.398;2023-11-19T05:38:36;11.80;99.90
52125;DHT22;38119;52.710;6.398;2023-11-19T05:41:02;11.80;99.90
52125;DHT22;38119;52.710;6.398;2023-11-19T05:43:28;11.80;99.90
52125;DHT22;38119;52.710;6.398;2023-11-19T05:45:54;11.80;99.90
52125;DHT22;38119;52.710;6.398;2023-11-19T05:48:19;11.80;99.90
52125;DHT22;38119;52.710;6.398;2023-11-19T05:50:49;11.80;99.90
52125;DHT22;38119;52.710;6.398;2023-11-19T05:53:16;11.80;99.90
52125;DHT22;38119;52.710;6.398;2023-11-19T05:55:41;11.90;99.90
52125;DHT22;38119;52.710;6.398;2023-11-19T05:58:27;11.70;99.90
52125;DHT22;38119;52.710;6.398;2023-11-19T06:00:57;11.70;99.90
52125;DHT22;38119;52.710;6.398;2023-11-19T06:03:23;11.70;99.90
52125;DHT22;38119;52.710;6.398;2023-11-19T06:05:49;11.70;99.90
52125;DHT22;38119;52.710;6.398;2023-11-19T06:08:15;11.70;99.90
52125;DHT22;38119;52.710;6.398;2023-11-19T06:10:42;11.60;99.90
52125;DHT22;38119;52.710;6.398;2023-11-19T06:13:07;11.60;99.90
52125;DHT22;38119;52.710;6.398;2023-11-19T06:15:35;11.60;99.90
52125;DHT22;38119;52.710;6.398;2023-11-19T06:18:01;11.60;99.90
52125;DHT22;38119;52.710;6.398;2023-11-19T06:20:32;11.50;99.90
52125;DHT22;38119;52.710;6.398;2023-11-19T06:22:58;11.50;99.90
52125;DHT22;38119;52.710;6.398;2023-11-19T06:25:24;11.50;99.90
52125;DHT22;38119;52.710;6.398;2023-11-19T06:27:51;11.40;99.90
52125;DHT22;38119;52.710;6.398;2023-11-19T06:30:16;10.90;99.90
52125;DHT22;38119;52.710;6.398;2023-11-19T06:32:42;11.40;99.90
52125;DHT22;38119;52.710;6.398;2023-11-19T06:35:08;11.40;99.90
52125;DHT22;38119;52.710;6.398;2023-11-19T06:37:39;11.40;99.90
52125;DHT22;38119;52.710;6.398;2023-11-19T06:40:05;11.40;99.90
52125;DHT22;38119;52.710;6.398;2023-11-19T06:42:31;11.40;99.90
52125;DHT22;38119;52.710;6.398;2023-11-19T06:44:58;11.40;99.90
52125;DHT22;38119;52.710;6.398;2023-11-19T06:47:27;11.40;99.90
52125;DHT22;38119;52.710;6.398;2023-11-19T06:49:54;11.50;99.90
52125;DHT22;38119;52.710;6.398;2023-11-19T06:52:22;11.50;99.90
52125;DHT22;38119;52.710;6.398;2023-11-19T06:54:50;11.40;99.90
52125;DHT22;38119;52.710;6.398;2023-11-19T06:57:17;11.40;99.90
52125;DHT22;38119;52.710;6.398;2023-11-19T06:59:43;11.40;99.90
52125;DHT22;38119;52.710;6.398;2023-11-19T07:02:08;11.40;99.90
52125;DHT22;38119;52.710;6.398;2023-11-19T07:04:41;11.40;99.90
52125;DHT22;38119;52.710;6.398;2023-11-19T07:07:08;11.40;99.90
52125;DHT22;38119;52.710;6.398;2023-11-19T07:09:33;11.40;99.90
52125;DHT22;38119;52.710;6.398;2023-11-19T07:11:59;11.40;99.90
52125;DHT22;38119;52.710;6.398;2023-11-19T07:14:27;11.50;99.90
52125;DHT22;38119;52.710;6.398;2023-11-19T07:16:52;11.50;99.90
52125;DHT22;38119;52.710;6.398;2023-11-19T07:19:19;11.50;99.90
52125;DHT22;38119;52.710;6.398;2023-11-19T07:21:47;11.40;99.90
52125;DHT22;38119;52.710;6.398;2023-11-19T07:24:12;11.40;99.90
52125;DHT22;38119;52.710;6.398;2023-11-19T07:26:48;11.40;99.90
52125;DHT22;38119;52.710;6.398;2023-11-19T07:29:15;11.40;99.90
52125;DHT22;38119;52.710;6.398;2023-11-19T07:31:42;11.40;99.90
52125;DHT22;38119;52.710;6.398;2023-11-19T07:34:09;11.40;99.90
52125;DHT22;38119;52.710;6.398;2023-11-19T07:36:36;11.30;99.90
52125;DHT22;38119;52.710;6.398;2023-11-19T07:39:03;11.30;99.90
52125;DHT22;38119;52.710;6.398;2023-11-19T07:41:30;11.30;99.90
52125;DHT22;38119;52.710;6.398;2023-11-19T07:43:56;11.30;99.90
52125;DHT22;38119;52.710;6.398;2023-11-19T07:46:23;11.40;99.90
52125;DHT22;38119;52.710;6.398;2023-11-19T07:48:48;11.40;99.90
52125;DHT22;38119;52.710;6.398;2023-11-19T07:51:14;11.40;99.90
52125;DHT22;38119;52.710;6.398;2023-11-19T07:53:41;11.40;99.90
52125;DHT22;38119;52.710;6.398;2023-11-19T07:56:07;11.40;99.90
52125;DHT22;38119;52.710;6.398;2023-11-19T07:58:33;11.40;99.90
52125;DHT22;38119;52.710;6.398;2023-11-19T08:01:00;11.40;99.90
52125;DHT22;38119;52.710;6.398;2023-11-19T08:03:27;11.40;99.90
52125;DHT22;38119;52.710;6.398;2023-11-19T08:05:55;11.40;99.90
52125;DHT22;38119;52.710;6.398;2023-11-19T08:08:27;11.40;99.90
52125;DHT22;38119;52.710;6.398;2023-11-19T08:10:55;11.40;99.90
52125;DHT22;38119;52.710;6.398;2023-11-19T08:13:23;11.50;99.90
52125;DHT22;38119;52.710;6.398;2023-11-19T08:15:49;11.40;99.90
52125;DHT22;38119;52.710;6.398;2023-11-19T08:18:14;11.40;99.90
52125;DHT22;38119;52.710;6.398;2023-11-19T08:20:40;11.40;99.90
52125;DHT22;38119;52.710;6.398;2023-11-19T08:23:07;11.40;99.90
52125;DHT22;38119;52.710;6.398;2023-11-19T08:25:33;11.40;99.90
52125;DHT22;38119;52.710;6.398;2023-11-19T08:27:59;11.40;99.90
52125;DHT22;38119;52.710;6.398;2023-11-19T08:30:25;11.40;99.90
52125;DHT22;38119;52.710;6.398;2023-11-19T08:32:51;11.30;99.90
52125;DHT22;38119;52.710;6.398;2023-11-19T08:35:16;11.20;99.90
52125;DHT22;38119;52.710;6.398;2023-11-19T08:37:43;11.20;99.90
52125;DHT22;38119;52.710;6.398;2023-11-19T08:40:11;11.20;99.90
52125;DHT22;38119;52.710;6.398;2023-11-19T08:42:38;11.20;99.90
52125;DHT22;38119;52.710;6.398;2023-11-19T08:45:07;11.20;99.90
52125;DHT22;38119;52.710;6.398;2023-11-19T08:47:36;11.20;99.90
52125;DHT22;38119;52.710;6.398;2023-11-19T08:50:01;11.20;99.90
52125;DHT22;38119;52.710;6.398;2023-11-19T08:52:27;11.20;99.90
52125;DHT22;38119;52.710;6.398;2023-11-19T08:54:52;11.30;99.90
52125;DHT22;38119;52.710;6.398;2023-11-19T08:57:18;11.30;99.90
52125;DHT22;38119;52.710;6.398;2023-11-19T08:59:44;11.30;99.90
52125;DHT22;38119;52.710;6.398;2023-11-19T09:02:11;11.50;99.90
52125;DHT22;38119;52.710;6.398;2023-11-19T09:04:36;11.30;99.90
52125;DHT22;38119;52.710;6.398;2023-11-19T09:07:02;11.30;99.90
52125;DHT22;38119;52.710;6.398;2023-11-19T09:09:29;11.30;99.90
52125;DHT22;38119;52.710;6.398;2023-11-19T09:11:55;11.30;99.90
52125;DHT22;38119;52.710;6.398;2023-11-19T09:14:21;11.40;99.90
52125;DHT22;38119;52.710;6.398;2023-11-19T09:16:54;11.40;99.90
52125;DHT22;38119;52.710;6.398;2023-11-19T09:19:21;11.50;99.90
52125;DHT22;38119;52.710;6.398;2023-11-19T09:21:46;11.50;99.90
52125;DHT22;38119;52.710;6.398;2023-11-19T09:24:14;11.50;99.90
52125;DHT22;38119;52.710;6.398;2023-11-19T09:26:40;11.50;99.90
52125;DHT22;38119;52.710;6.398;2023-11-19T09:29:10;11.60;99.90
52125;DHT22;38119;52.710;6.398;2023-11-19T09:31:37;11.60;99.90
52125;DHT22;38119;52.710;6.398;2023-11-19T09:34:03;11.60;99.90
52125;DHT22;38119;52.710;6.398;2023-11-19T09:36:29;12.10;99.90
52125;DHT22;38119;52.710;6.398;2023-11-19T09:38:54;11.70;99.90
52125;DHT22;38119;52.710;6.398;2023-11-19T09:41:23;11.70;99.90
52125;DHT22;38119;52.710;6.398;2023-11-19T09:43:50;11.70;99.90
52125;DHT22;38119;52.710;6.398;2023-11-19T09:46:17;11.70;99.90
52125;DHT22;38119;52.710;6.398;2023-11-19T09:48:46;11.70;99.90
52125;DHT22;38119;52.710;6.398;2023-11-19T09:51:13;11.70;99.90
52125;DHT22;38119;52.710;6.398;2023-11-19T09:53:39;11.70;99.90
52125;DHT22;38119;52.710;6.398;2023-11-19T09:56:06;11.70;99.90
52125;DHT22;38119;52.710;6.398;2023-11-19T09:58:33;11.70;99.90
52125;DHT22;38119;52.710;6.398;2023-11-19T10:01:04;11.70;99.90
52125;DHT22;38119;52.710;6.398;2023-11-19T10:03:35;11.70;99.90
52125;DHT22;38119;52.710;6.398;2023-11-19T10:06:07;11.70;99.90
52125;DHT22;38119;52.710;6.398;2023-11-19T10:08:34;11.60;99.90
52125;DHT22;38119;52.710;6.398;2023-11-19T10:10:59;11.70;99.90
52125;DHT22;38119;52.710;6.398;2023-11-19T10:13:29;11.70;99.90
52125;DHT22;38119;52.710;6.398;2023-11-19T10:15:55;11.70;99.90
52125;DHT22;38119;52.710;6.398;2023-11-19T10:18:29;11.70;99.90
52125;DHT22;38119;52.710;6.398;2023-11-19T10:20:55;11.70;99.90
52125;DHT22;38119;52.710;6.398;2023-11-19T10:23:22;11.60;99.90
52125;DHT22;38119;52.710;6.398;2023-11-19T10:25:48;11.70;99.90
52125;DHT22;38119;52.710;6.398;2023-11-19T10:28:15;11.70;99.90
52125;DHT22;38119;52.710;6.398;2023-11-19T10:30:42;11.70;99.90
52125;DHT22;38119;52.710;6.398;2023-11-19T10:33:10;11.60;99.90
52125;DHT22;38119;52.710;6.398;2023-11-19T10:35:56;11.80;99.90
52125;DHT22;38119;52.710;6.398;2023-11-19T10:38:23;11.80;99.90
52125;DHT22;38119;52.710;6.398;2023-11-19T10:40:50;11.80;99.90
52125;DHT22;38119;52.710;6.398;2023-11-19T10:43:17;11.90;99.90
52125;DHT22;38119;52.710;6.398;2023-11-19T10:45:44;11.80;99.90
52125;DHT22;38119;52.710;6.398;2023-11-19T10:48:10;11.90;99.90
52125;DHT22;38119;52.710;6.398;2023-11-19T10:50:42;11.90;99.90
52125;DHT22;38119;52.710;6.398;2023-11-19T10:53:12;11.90;99.90
52125;DHT22;38119;52.710;6.398;2023-11-19T10:55:47;12.00;99.90
52125;DHT22;38119;52.710;6.398;2023-11-19T10:58:18;12.00;99.90
52125;DHT22;38119;52.710;6.398;2023-11-19T11:00:47;12.00;99.90
52125;DHT22;38119;52.710;6.398;2023-11-19T11:03:19;12.00;99.90
52125;DHT22;38119;52.710;6.398;2023-11-19T11:05:52;12.10;99.90
52125;DHT22;38119;52.710;6.398;2023-11-19T11:08:19;12.00;99.90
52125;DHT22;38119;52.710;6.398;2023-11-19T11:10:54;12.10;99.90
52125;DHT22;38119;52.710;6.398;2023-11-19T11:13:22;12.00;99.90
52125;DHT22;38119;52.710;6.398;2023-11-19T11:15:50;12.00;99.90
52125;DHT22;38119;52.710;6.398;2023-11-19T11:18:17;12.00;99.90
52125;DHT22;38119;52.710;6.398;2023-11-19T11:20:44;11.90;99.90
52125;DHT22;38119;52.710;6.398;2023-11-19T11:23:28;11.90;99.90
52125;DHT22;38119;52.710;6.398;2023-11-19T11:34:24;11.80;99.90
52125;DHT22;38119;52.710;6.398;2023-11-19T11:39:34;11.70;99.90
52125;DHT22;38119;52.710;6.398;2023-11-19T11:42:31;11.70;99.90
52125;DHT22;38119;52.710;6.398;2023-11-19T11:50:18;11.60;99.90
52125;DHT22;38119;52.710;6.398;2023-11-19T11:55:51;11.50;99.90
52125;DHT22;38119;52.710;6.398;2023-11-19T11:58:21;11.60;99.90
52125;DHT22;38119;52.710;6.398;2023-11-19T12:00:51;11.60;99.90
52125;DHT22;38119;52.710;6.398;2023-11-19T12:03:21;11.60;99.90
52125;DHT22;38119;52.710;6.398;2023-11-19T12:05:53;11.70;99.90
52125;DHT22;38119;52.710;6.398;2023-11-19T12:08:25;11.70;99.90
52125;DHT22;38119;52.710;6.398;2023-11-19T12:10:53;11.80;99.90
52125;DHT22;38119;52.710;6.398;2023-11-19T12:13:20;11.90;99.90
52125;DHT22;38119;52.710;6.398;2023-11-19T12:18:27;12.10;99.90
52125;DHT22;38119;52.710;6.398;2023-11-19T12:20:57;12.20;99.90
52125;DHT22;38119;52.710;6.398;2023-11-19T12:23:26;12.30;99.90
52125;DHT22;38119;52.710;6.398;2023-11-19T12:25:52;12.40;99.90
52125;DHT22;38119;52.710;6.398;2023-11-19T12:28:18;12.40;99.90
52125;DHT22;38119;52.710;6.398;2023-11-19T12:30:45;12.40;99.90
52125;DHT22;38119;52.710;6.398;2023-11-19T12:33:12;12.40;99.90
52125;DHT22;38119;52.710;6.398;2023-11-19T12:35:41;12.40;99.90
52125;DHT22;38119;52.710;6.398;2023-11-19T12:38:07;12.30;99.90
52125;DHT22;38119;52.710;6.398;2023-11-19T12:40:35;12.30;99.90
52125;DHT22;38119;52.710;6.398;2023-11-19T12:43:01;12.20;99.90
52125;DHT22;38119;52.710;6.398;2023-11-19T12:45:36;12.20;99.90
52125;DHT22;38119;52.710;6.398;2023-11-19T12:48:05;12.10;99.90
52125;DHT22;38119;52.710;6.398;2023-11-19T12:53:15;12.00;99.90
52125;DHT22;38119;52.710;6.398;2023-11-19T12:55:41;12.00;99.90
52125;DHT22;38119;52.710;6.398;2023-11-19T12:58:07;11.90;99.90
52125;DHT22;38119;52.710;6.398;2023-11-19T13:00:32;11.90;99.90
52125;DHT22;38119;52.710;6.398;2023-11-19T13:02:58;11.90;99.90
52125;DHT22;38119;52.710;6.398;2023-11-19T13:05:32;12.20;99.90
52125;DHT22;38119;52.710;6.398;2023-11-19T13:08:08;11.90;99.90
52125;DHT22;38119;52.710;6.398;2023-11-19T13:10:53;11.90;99.90
52125;DHT22;38119;52.710;6.398;2023-11-19T13:13:21;11.90;99.90
52125;DHT22;38119;52.710;6.398;2023-11-19T13:15:47;11.90;99.90
52125;DHT22;38119;52.710;6.398;2023-11-19T13:18:15;11.90;99.90
52125;DHT22;38119;52.710;6.398;2023-11-19T13:20:41;11.90;99.90
52125;DHT22;38119;52.710;6.398;2023-11-19T13:23:07;11.90;99.90
52125;DHT22;38119;52.710;6.398;2023-11-19T13:25:33;11.90;99.90
52125;DHT22;38119;52.710;6.398;2023-11-19T13:27:59;11.90;99.90
52125;DHT22;38119;52.710;6.398;2023-11-19T13:30:25;11.90;99.90
52125;DHT22;38119;52.710;6.398;2023-11-19T13:32:52;11.90;99.90
52125;DHT22;38119;52.710;6.398;2023-11-19T13:35:18;11.90;99.90
52125;DHT22;38119;52.710;6.398;2023-11-19T13:37:45;11.80;99.90
52125;DHT22;38119;52.710;6.398;2023-11-19T13:40:11;11.70;99.90
52125;DHT22;38119;52.710;6.398;2023-11-19T13:42:40;11.70;99.90
52125;DHT22;38119;52.710;6.398;2023-11-19T13:47:36;11.50;99.90
52125;DHT22;38119;52.710;6.398;2023-11-19T13:50:02;11.50;99.90
52125;DHT22;38119;52.710;6.398;2023-11-19T13:52:31;11.50;99.90
52125;DHT22;38119;52.710;6.398;2023-11-19T13:54:57;11.50;99.90
52125;DHT22;38119;52.710;6.398;2023-11-19T13:57:22;11.40;99.90
52125;DHT22;38119;52.710;6.398;2023-11-19T13:59:48;11.40;99.90
52125;DHT22;38119;52.710;6.398;2023-11-19T14:02:14;11.40;99.90
52125;DHT22;38119;52.710;6.398;2023-11-19T14:04:40;11.40;99.90
52125;DHT22;38119;52.710;6.398;2023-11-19T14:07:06;11.40;99.90
52125;DHT22;38119;52.710;6.398;2023-11-19T14:09:32;11.40;99.90
52125;DHT22;38119;52.710;6.398;2023-11-19T14:11:57;11.40;99.90
52125;DHT22;38119;52.710;6.398;2023-11-19T14:14:23;11.40;99.90
52125;DHT22;38119;52.710;6.398;2023-11-19T14:16:49;11.40;99.90
52125;DHT22;38119;52.710;6.398;2023-11-19T14:19:18;11.40;99.90
52125;DHT22;38119;52.710;6.398;2023-11-19T14:21:46;11.50;99.90
52125;DHT22;38119;52.710;6.398;2023-11-19T14:24:13;11.40;99.90
52125;DHT22;38119;52.710;6.398;2023-11-19T14:26:39;11.40;99.90
52125;DHT22;38119;52.710;6.398;2023-11-19T14:29:06;11.40;99.90
52125;DHT22;38119;52.710;6.398;2023-11-19T14:31:32;11.40;99.90
52125;DHT22;38119;52.710;6.398;2023-11-19T14:33:58;11.40;99.90
52125;DHT22;38119;52.710;6.398;2023-11-19T14:36:23;11.40;99.90
52125;DHT22;38119;52.710;6.398;2023-11-19T14:38:49;11.30;99.90
52125;DHT22;38119;52.710;6.398;2023-11-19T14:41:16;11.40;99.90
52125;DHT22;38119;52.710;6.398;2023-11-19T14:43:41;11.40;99.90
52125;DHT22;38119;52.710;6.398;2023-11-19T14:46:07;11.40;99.90
52125;DHT22;38119;52.710;6.398;2023-11-19T14:48:33;11.30;99.90
52125;DHT22;38119;52.710;6.398;2023-11-19T14:50:59;11.30;99.90
52125;DHT22;38119;52.710;6.398;2023-11-19T14:53:24;11.30;99.90
52125;DHT22;38119;52.710;6.398;2023-11-19T14:55:56;11.30;99.90
52125;DHT22;38119;52.710;6.398;2023-11-19T14:58:22;11.20;99.90
52125;DHT22;38119;52.710;6.398;2023-11-19T15:00:47;11.20;99.90
52125;DHT22;38119;52.710;6.398;2023-11-19T15:03:14;11.20;99.90
52125;DHT22;38119;52.710;6.398;2023-11-19T15:05:41;11.20;99.90
52125;DHT22;38119;52.710;6.398;2023-11-19T15:08:07;11.20;99.90
52125;DHT22;38119;52.710;6.398;2023-11-19T15:10:36;11.20;99.90
52125;DHT22;38119;52.710;6.398;2023-11-19T15:13:03;11.20;99.90
52125;DHT22;38119;52.710;6.398;2023-11-19T15:15:29;11.20;99.90
52125;DHT22;38119;52.710;6.398;2023-11-19T15:17:55;11.20;99.90
52125;DHT22;38119;52.710;6.398;2023-11-19T15:20:20;11.20;99.90
52125;DHT22;38119;52.710;6.398;2023-11-19T15:22:46;11.20;99.90
52125;DHT22;38119;52.710;6.398;2023-11-19T15:25:12;11.20;99.90
52125;DHT22;38119;52.710;6.398;2023-11-19T15:27:45;11.20;99.90
52125;DHT22;38119;52.710;6.398;2023-11-19T15:30:11;11.20;99.90
52125;DHT22;38119;52.710;6.398;2023-11-19T15:32:37;11.20;99.90
52125;DHT22;38119;52.710;6.398;2023-11-19T15:35:03;11.20;99.90
52125;DHT22;38119;52.710;6.398;2023-11-19T15:37:28;11.20;99.90
52125;DHT22;38119;52.710;6.398;2023-11-19T15:39:54;11.20;99.90
52125;DHT22;38119;52.710;6.398;2023-11-19T15:42:20;11.20;99.90
52125;DHT22;38119;52.710;6.398;2023-11-19T15:44:45;11.20;99.90
52125;DHT22;38119;52.710;6.398;2023-11-19T15:47:11;11.10;99.90
52125;DHT22;38119;52.710;6.398;2023-11-19T15:49:37;11.10;99.90
52125;DHT22;38119;52.710;6.398;2023-11-19T15:52:05;11.10;99.90
52125;DHT22;38119;52.710;6.398;2023-11-19T15:54:31;11.10;99.90
52125;DHT22;38119;52.710;6.398;2023-11-19T15:56:57;11.10;99.90
52125;DHT22;38119;52.710;6.398;2023-11-19T15:59:22;11.10;99.90
52125;DHT22;38119;52.710;6.398;2023-11-19T16:01:48;11.10;99.90